createdAt,value
2019-03-18T00:04:07.770Z,91.26
2019-03-18T00:09:07.561Z,90.44
2019-03-18T00:14:07.054Z,90.17
2019-03-18T00:19:07.542Z,89.87
2019-03-18T00:24:06.966Z,89.88
2019-03-18T00:28:06.756Z,90.23
2019-03-18T00:33:07.081Z,90.34
2019-03-18T00:38:06.569Z,90.5
2019-03-18T00:43:06.577Z,90.55
2019-03-18T00:48:06.755Z,91.07
2019-03-18T00:53:06.293Z,90.9
2019-03-18T00:58:06.876Z,90.33
2019-03-18T01:03:07.261Z,90.96
2019-03-18T01:07:06.951Z,90.88
2019-03-18T01:12:07.054Z,90.45
2019-03-18T01:17:06.931Z,91.3
2019-03-18T01:22:06.528Z,91.28
2019-03-18T01:27:07.064Z,91.06
2019-03-18T01:32:06.302Z,90.77
2019-03-18T01:37:06.847Z,91.18
2019-03-18T01:41:07.910Z,90.87
2019-03-18T01:46:08.047Z,90.78
2019-03-18T01:51:07.581Z,90.1
2019-03-18T01:56:08.057Z,90.29
2019-03-18T02:01:06.906Z,90.42
2019-03-18T02:06:10.197Z,91.13
2019-03-18T02:11:07.278Z,91.39
2019-03-18T02:16:06.673Z,91.76
2019-03-18T02:20:06.474Z,92.02
2019-03-18T02:25:07.104Z,91.47
2019-03-18T02:30:08.106Z,91.12
2019-03-18T02:35:06.896Z,91.45
2019-03-18T02:40:06.843Z,91.43
2019-03-18T02:45:08.561Z,90.5
2019-03-18T02:50:06.699Z,91.12
2019-03-18T02:54:07.503Z,91.28
2019-03-18T02:59:06.962Z,90.77
2019-03-18T03:04:06.817Z,90.63
2019-03-18T03:09:07.625Z,91.1
2019-03-18T03:14:07.139Z,91.12
2019-03-18T03:19:07.227Z,90.82
2019-03-18T03:23:07.026Z,90.29
2019-03-18T03:28:07.440Z,89.73
2019-03-18T03:33:07.092Z,89.44
2019-03-18T03:38:07.656Z,89.09
2019-03-18T03:43:07.518Z,88.82
2019-03-18T03:48:06.968Z,88.85
2019-03-18T03:53:07.517Z,88.52
2019-03-18T03:58:07.098Z,88.65
2019-03-18T04:02:07.625Z,88.3
2019-03-18T04:07:07.407Z,88.88
2019-03-18T04:12:07.136Z,88.51
2019-03-18T04:17:07.280Z,87.62
2019-03-18T04:22:06.831Z,87.77
2019-03-18T04:27:07.324Z,87.75
2019-03-18T04:31:06.897Z,88.56
2019-03-18T04:32:07.736Z,88.56
2019-03-18T04:36:06.603Z,88.14
2019-03-18T04:41:06.662Z,87.84
2019-03-18T04:46:06.947Z,87.4
2019-03-18T04:51:06.566Z,87.31
2019-03-18T04:56:07.112Z,87.29
2019-03-18T05:01:07.367Z,88.17
2019-03-18T05:06:06.962Z,87.79
2019-03-18T05:10:07.002Z,88.34
2019-03-18T05:15:07.783Z,88.07
2019-03-18T05:20:06.711Z,86.86
2019-03-18T05:25:07.643Z,86.56
2019-03-18T05:30:08.676Z,86.6
2019-03-18T05:35:07.103Z,87.07
2019-03-18T05:40:07.790Z,86.84
2019-03-18T05:44:08.599Z,86.25
2019-03-18T05:49:07.080Z,85.32
2019-03-18T05:54:06.745Z,84.78
2019-03-18T05:59:07.083Z,84.42
2019-03-18T06:04:07.509Z,84.67
2019-03-18T06:09:07.404Z,85.01
2019-03-18T06:14:07.012Z,84.52
2019-03-18T06:18:06.704Z,84.92
2019-03-18T06:23:06.967Z,83.85
2019-03-18T06:28:07.547Z,83.97
2019-03-18T06:33:07.215Z,82.86
2019-03-18T06:38:07.681Z,84.45
2019-03-18T06:43:07.562Z,83.98
2019-03-18T06:48:09.812Z,83.35
2019-03-18T06:53:07.246Z,82.97
2019-03-18T06:57:07.139Z,81.28
2019-03-18T07:02:07.694Z,82.74
2019-03-18T07:07:07.093Z,82.73
2019-03-18T07:12:07.070Z,81.38
2019-03-18T07:17:07.453Z,81.9
2019-03-18T07:22:08.024Z,82.13
2019-03-18T07:26:06.528Z,82.15
2019-03-18T07:31:06.824Z,82.93
2019-03-18T07:36:06.407Z,81.31
2019-03-18T07:41:06.397Z,81.09
2019-03-18T07:46:06.597Z,80.57
2019-03-18T07:51:07.127Z,80.95
2019-03-18T07:55:06.859Z,80.23
2019-03-18T08:00:08.995Z,81.36
2019-03-18T08:05:06.449Z,80.76
2019-03-18T08:10:06.635Z,82.12
2019-03-18T08:15:08.232Z,80.54
2019-03-18T08:20:06.982Z,81.15
2019-03-18T08:25:06.313Z,80.28
2019-03-18T08:30:08.135Z,80.54
2019-03-18T08:34:06.942Z,79.49
2019-03-18T08:39:07.720Z,80.27
2019-03-18T08:44:07.052Z,79.89
2019-03-18T08:49:06.993Z,80.31
2019-03-18T08:54:07.384Z,79.03
2019-03-18T08:59:06.819Z,80.67
2019-03-18T09:03:07.369Z,78.43
2019-03-18T09:08:06.854Z,79.22
2019-03-18T09:13:06.748Z,78.68
2019-03-18T09:18:06.912Z,78.45
2019-03-18T09:23:07.435Z,78.48
2019-03-18T09:28:06.930Z,77.24
2019-03-18T09:33:07.264Z,76.97
2019-03-18T09:38:06.655Z,78.13
2019-03-18T09:42:07.442Z,76.06
2019-03-18T09:47:06.466Z,75.58
2019-03-18T09:52:07.019Z,75.31
2019-03-18T09:57:07.465Z,73.97
2019-03-18T10:02:07.149Z,75.35
2019-03-18T10:07:06.617Z,75.44
2019-03-18T10:11:07.410Z,76.68
2019-03-18T10:16:07.015Z,75.27
2019-03-18T10:21:06.503Z,76.16
2019-03-18T10:26:06.850Z,74.53
2019-03-18T10:31:07.067Z,75.98
2019-03-18T10:36:06.449Z,77.29
2019-03-18T10:41:07.333Z,76.87
2019-03-18T10:46:06.697Z,74.84
2019-03-18T10:50:06.744Z,75.71
2019-03-18T10:55:06.256Z,72.21
2019-03-18T11:00:08.963Z,71.61
2019-03-18T11:05:08.577Z,72.43
2019-03-18T11:10:06.599Z,71.39
2019-03-18T11:15:08.372Z,71.68
2019-03-18T11:20:07.280Z,72.58
2019-03-18T11:24:06.356Z,72.05
2019-03-18T11:29:06.662Z,69.83
2019-03-18T11:34:06.890Z,69.49
2019-03-18T11:39:06.726Z,69.46
2019-03-18T11:44:06.169Z,68.75
2019-03-18T11:49:06.368Z,68.77
2019-03-18T11:54:06.773Z,67.59
2019-03-18T11:58:07.479Z,72.51
2019-03-18T12:03:06.930Z,73.33
2019-03-18T12:08:06.356Z,76.49
2019-03-18T12:13:06.211Z,81.8
2019-03-18T12:18:06.962Z,79.33
2019-03-18T12:23:06.337Z,79.54
2019-03-18T12:27:06.976Z,77.32
2019-03-18T12:32:07.386Z,76.64
2019-03-18T12:37:06.739Z,75.93
2019-03-18T12:42:06.701Z,73.41
2019-03-18T12:47:06.956Z,73.23
2019-03-18T12:52:07.402Z,74.66
2019-03-18T12:56:06.732Z,76.59
2019-03-18T13:01:13.202Z,75.84
2019-03-18T13:06:06.687Z,70.85
2019-03-18T13:11:06.604Z,70.68
2019-03-18T13:16:06.957Z,69.37
2019-03-18T13:21:08.662Z,66.61
2019-03-18T13:26:06.977Z,65.09
2019-03-18T13:30:08.424Z,67.73
2019-03-18T13:31:07.219Z,67.73
2019-03-18T13:35:06.476Z,67.88
2019-03-18T13:40:07.394Z,66.05
2019-03-18T13:45:07.863Z,65.02
2019-03-18T13:50:07.191Z,60.98
2019-03-18T13:55:06.739Z,60.48
2019-03-18T14:00:08.913Z,59.78
2019-03-18T14:05:07.069Z,64.08
2019-03-18T14:09:06.709Z,63.9
2019-03-18T14:14:07.214Z,71.85
2019-03-18T14:19:06.974Z,79.37
2019-03-18T14:24:07.451Z,80.54
2019-03-18T14:29:06.939Z,76.73
2019-03-18T14:34:07.047Z,74.66
2019-03-18T14:39:06.956Z,72.74
2019-03-18T14:43:07.350Z,70.95
2019-03-18T14:48:07.295Z,70.69
2019-03-18T14:53:06.747Z,71.91
2019-03-18T14:58:07.304Z,70.17
2019-03-18T15:03:07.082Z,68.99
2019-03-18T15:08:06.565Z,68.02
2019-03-18T15:12:07.338Z,68.33
2019-03-18T15:17:07.488Z,68.21
2019-03-18T15:22:06.928Z,67.93
2019-03-18T15:27:07.339Z,67.01
2019-03-18T15:32:07.421Z,66.26
2019-03-18T15:37:06.698Z,67.2
2019-03-18T15:42:06.163Z,69.6
2019-03-18T15:46:07.209Z,69.29
2019-03-18T15:51:06.502Z,67.21
2019-03-18T15:56:07.285Z,67.06
2019-03-18T16:01:07.085Z,67.3
2019-03-18T16:06:06.586Z,67.67
2019-03-18T16:11:06.682Z,66.57
2019-03-18T16:15:08.642Z,64.68
2019-03-18T16:20:07.090Z,65.16
2019-03-18T16:25:06.610Z,66.62
2019-03-18T16:30:08.227Z,65.06
2019-03-18T16:35:07.195Z,66.93
2019-03-18T16:40:07.157Z,68.04
2019-03-18T16:45:08.218Z,67.35
2019-03-18T16:49:06.836Z,67.5
2019-03-18T16:54:06.908Z,72.45
2019-03-18T16:59:06.616Z,76.49
2019-03-18T17:04:07.513Z,78.55
2019-03-18T17:09:07.370Z,79.74
2019-03-18T17:14:06.952Z,78.22
2019-03-18T17:18:07.905Z,78.67
2019-03-18T17:23:06.612Z,79.55
2019-03-18T17:28:07.475Z,78.82
2019-03-18T17:33:06.677Z,78.85
2019-03-18T17:38:06.741Z,78.77
2019-03-18T17:43:06.482Z,79.16
2019-03-18T17:47:07.533Z,78.8
2019-03-18T17:52:06.183Z,79.67
2019-03-18T17:57:10.955Z,78.96
2019-03-18T18:02:06.339Z,78.82
2019-03-18T18:07:06.800Z,79.59
2019-03-18T18:12:06.924Z,83.88
2019-03-18T18:17:07.042Z,82.53
2019-03-18T18:21:06.671Z,82.58
2019-03-18T18:26:07.139Z,83.02
2019-03-18T18:31:07.458Z,84.28
2019-03-18T18:36:06.869Z,84.36
2019-03-18T18:41:06.576Z,85.38
2019-03-18T18:46:06.570Z,86.8
2019-03-18T18:51:07.494Z,87.41
2019-03-18T18:55:07.141Z,87.24
2019-03-18T19:05:06.899Z,86.43
2019-03-18T19:10:06.685Z,85.77
2019-03-18T19:15:08.588Z,85.38
2019-03-18T19:20:07.246Z,86.17
2019-03-18T19:25:06.798Z,85.83
2019-03-18T19:29:07.889Z,87.5
2019-03-18T19:34:07.352Z,87.27
2019-03-18T19:39:07.381Z,86.03
2019-03-18T19:44:06.831Z,85.98
2019-03-18T19:49:07.077Z,86.16
2019-03-18T19:54:06.593Z,86.14
2019-03-18T19:59:07.029Z,86.62
2019-03-18T20:03:06.581Z,86.46
2019-03-18T20:08:07.106Z,86.26
2019-03-18T20:13:06.209Z,85.55
2019-03-18T20:18:06.737Z,86.82
2019-03-18T20:23:06.276Z,85.54
2019-03-18T20:28:06.825Z,85.76
2019-03-18T20:33:07.019Z,84.98
2019-03-18T20:37:06.899Z,85.88
2019-03-18T20:42:06.761Z,87.11
2019-03-18T20:47:06.934Z,87.26
2019-03-18T20:52:17.268Z,86.84
2019-03-18T20:57:06.863Z,86.04
2019-03-18T21:02:06.245Z,86.02
2019-03-18T21:07:06.729Z,85.98
2019-03-18T21:12:06.965Z,86.03
2019-03-18T21:16:07.083Z,85.09
2019-03-18T21:21:06.655Z,85.68
2019-03-18T21:26:07.140Z,85.78
2019-03-18T21:31:07.261Z,85.78
2019-03-18T21:36:06.674Z,85.72
2019-03-18T21:41:06.518Z,85.37
2019-03-18T21:46:06.192Z,84.66
2019-03-18T21:51:06.976Z,83.58
2019-03-18T21:55:07.104Z,84.18
2019-03-18T22:00:08.588Z,84.59
2019-03-18T22:05:08.982Z,84.37
2019-03-18T22:10:07.105Z,85.41
2019-03-18T22:15:08.330Z,85.97
2019-03-18T22:20:06.794Z,86.18
2019-03-18T22:24:07.255Z,87.21
2019-03-18T22:29:06.748Z,86.66
2019-03-18T22:34:06.910Z,86.78
2019-03-18T22:39:06.816Z,85.85
2019-03-18T22:44:07.280Z,86.78
2019-03-18T22:49:07.310Z,87.15
2019-03-18T22:53:06.402Z,86.21
2019-03-18T22:58:06.949Z,87.33
2019-03-18T23:03:07.249Z,86.69
2019-03-18T23:08:06.714Z,86.27
2019-03-18T23:13:06.395Z,86.32
2019-03-18T23:18:06.952Z,86.48
2019-03-18T23:23:06.494Z,86.49
2019-03-18T23:28:06.963Z,86.73
2019-03-18T23:32:06.526Z,86.24
2019-03-18T23:37:07.119Z,87.43
2019-03-18T23:42:07.045Z,87.83
2019-03-18T23:47:06.773Z,88.17
2019-03-18T23:52:07.319Z,88.43
2019-03-18T23:57:06.810Z,88.82
